Time;durP1;ratioP1;P1;durP2;ratioP2;P2;SDS_P1;SDS_P2;PMS_P1;PMS_P2;Temp;Humidity;BMP_temperature;BMP_pressure;BME280_temperature;BME280_humidity;BME280_pressure;Samples;Min_cycle;Max_cycle;Signal;HPM_P1;HPM_P2
2023/05/07 03:20:05;;;;;;;74.53;25.63;;;14.30;99.90;;;;;;5673595;23;20552;-83
2023/05/07 03:22:31;;;;;;;75.20;25.17;;;14.20;99.90;;;;;;4980241;28;20541;-82
2023/05/07 03:24:57;;;;;;;73.20;20.37;;;14.20;99.90;;;;;;4997375;28;20464;-82
2023/05/07 03:27:22;;;;;;;73.33;21.17;;;14.20;99.90;;;;;;4997869;28;20190;-82
2023/05/07 03:29:48;;;;;;;76.20;22.17;;;14.20;99.90;;;;;;4997032;28;20496;-82
2023/05/07 03:32:14;;;;;;;72.27;17.87;;;14.20;99.90;;;;;;4979698;28;20171;-82
2023/05/07 03:34:40;;;;;;;73.77;21.97;;;14.20;99.90;;;;;;4997697;28;20398;-82
2023/05/07 03:37:06;;;;;;;73.27;21.50;;;14.10;99.90;;;;;;4997004;28;20187;-82
2023/05/07 03:39:32;;;;;;;72.00;18.27;;;14.10;99.90;;;;;;4997824;28;20453;-82
2023/05/07 03:41:58;;;;;;;75.43;23.30;;;14.10;99.90;;;;;;4979789;28;20191;-82
2023/05/07 03:44:23;;;;;;;73.37;18.20;;;14.10;99.90;;;;;;4997391;28;20398;-82
2023/05/07 03:46:49;;;;;;;72.97;19.97;;;14.10;99.90;;;;;;4997213;28;20414;-82
2023/05/07 03:49:15;;;;;;;71.87;17.93;;;14.10;99.90;;;;;;4979667;28;20218;-82
2023/05/07 03:51:43;;;;;;;72.90;19.00;;;14.10;99.90;;;;;;4979186;28;20202;-82
2023/05/07 03:54:09;;;;;;;71.87;17.43;;;14.10;99.90;;;;;;4996665;28;20177;-82
2023/05/07 03:56:37;;;;;;;72.17;16.47;;;14.10;99.90;;;;;;4979532;28;20422;-82
2023/05/07 03:59:03;;;;;;;71.00;17.97;;;14.10;99.90;;;;;;4997173;28;20174;-82
2023/05/07 04:01:29;;;;;;;71.43;17.20;;;14.00;99.90;;;;;;4996459;28;20399;-82
2023/05/07 04:03:55;;;;;;;69.27;14.77;;;14.00;99.90;;;;;;4979394;28;20170;-82
2023/05/07 04:06:21;;;;;;;69.17;13.07;;;14.10;99.90;;;;;;4996691;28;20762;-82
2023/05/07 04:08:46;;;;;;;69.87;15.27;;;14.10;99.90;;;;;;4996511;28;20405;-82
2023/05/07 04:11:12;;;;;;;73.57;15.70;;;14.10;99.90;;;;;;4996797;28;20429;-82
2023/05/07 04:13:38;;;;;;;72.23;18.07;;;14.00;99.90;;;;;;4996478;28;20198;-82
2023/05/07 04:18:37;;;;;;;71.40;18.20;;;14.10;99.90;;;;;;5131068;23;20226;-82
2023/05/07 04:21:06;;;;;;;76.10;19.00;;;14.10;99.90;;;;;;4996048;28;20764;-82
2023/05/07 04:23:32;;;;;;;71.20;18.10;;;14.10;99.90;;;;;;4996345;28;20163;-82
2023/05/07 04:25:57;;;;;;;73.23;19.33;;;14.10;99.90;;;;;;4978823;28;20433;-82
2023/05/07 04:28:24;;;;;;;76.00;22.00;;;14.20;99.90;;;;;;4996965;28;20171;-82
2023/05/07 04:30:49;;;;;;;75.57;21.17;;;14.20;99.90;;;;;;4978713;28;20406;-82
2023/05/07 04:33:21;;;;;;;74.27;21.67;;;14.20;99.90;;;;;;4996036;28;20974;-82
2023/05/07 04:35:47;;;;;;;75.73;27.97;;;14.20;99.90;;;;;;5002992;23;20274;-82
2023/05/07 04:38:12;;;;;;;77.60;34.77;;;14.20;99.90;;;;;;4978798;28;20435;-82
2023/05/07 04:40:38;;;;;;;76.00;30.50;;;14.30;99.90;;;;;;4995988;28;20936;-83
2023/05/07 04:43:04;;;;;;;74.27;27.60;;;14.30;99.90;;;;;;4996552;28;20171;-82
2023/05/07 04:45:33;;;;;;;74.90;25.60;;;14.30;99.90;;;;;;4978713;28;20777;-82
2023/05/07 04:47:59;;;;;;;74.17;23.90;;;14.40;99.90;;;;;;4979863;28;20257;-82
2023/05/07 04:50:24;;;;;;;73.07;22.77;;;14.30;99.90;;;;;;4983134;28;20448;-82
2023/05/07 04:52:50;;;;;;;72.77;22.37;;;14.30;99.90;;;;;;4983357;28;20512;-82
2023/05/07 04:55:16;;;;;;;72.67;20.87;;;14.40;99.90;;;;;;5000979;28;20167;-82
2023/05/07 04:57:42;;;;;;;73.13;19.47;;;14.40;99.90;;;;;;4982934;28;20201;-82
2023/05/07 05:00:08;;;;;;;74.57;23.27;;;14.40;99.90;;;;;;5000835;28;20625;-82
2023/05/07 05:02:34;;;;;;;71.50;20.00;;;14.40;99.90;;;;;;4982972;28;20170;-82
2023/05/07 05:05:02;;;;;;;73.50;23.97;;;14.40;99.90;;;;;;4982867;28;20417;-82
2023/05/07 05:07:28;;;;;;;72.17;20.77;;;14.40;99.90;;;;;;4983098;28;20437;-82
2023/05/07 05:09:55;;;;;;;72.10;20.33;;;14.50;99.90;;;;;;4982822;28;20933;-82
2023/05/07 05:12:20;;;;;;;73.97;20.80;;;14.50;99.90;;;;;;5000312;28;20470;-82
2023/05/07 05:14:46;;;;;;;73.10;21.37;;;14.50;99.90;;;;;;5000368;28;20417;-82
2023/05/07 05:17:12;;;;;;;75.47;22.50;;;14.50;99.90;;;;;;5000373;28;20179;-82
2023/05/07 05:19:38;;;;;;;72.13;21.90;;;14.60;99.90;;;;;;5000492;28;20425;-83
2023/05/07 05:22:03;;;;;;;76.17;20.47;;;14.60;99.90;;;;;;5000336;28;20178;-82
2023/05/07 05:24:32;;;;;;;74.17;22.40;;;14.70;99.90;;;;;;5000816;28;20525;-82
2023/05/07 05:27:01;;;;;;;71.93;20.37;;;14.70;99.90;;;;;;5000473;28;20269;-82
2023/05/07 05:29:26;;;;;;;74.00;21.47;;;14.80;99.90;;;;;;5000231;28;20537;-82
2023/05/07 05:31:55;;;;;;;73.10;17.37;;;14.80;99.90;;;;;;5000359;28;20466;-82
2023/05/07 05:34:21;;;;;;;74.17;21.43;;;14.80;99.90;;;;;;4982485;28;20168;-82
2023/05/07 05:36:56;;;;;;;71.37;17.83;;;14.80;99.90;;;;;;4979126;28;20443;-83
2023/05/07 05:39:23;;;;;;;75.90;21.67;;;14.90;99.90;;;;;;4980886;28;20400;-83
2023/05/07 05:41:51;;;;;;;70.97;19.20;;;14.90;99.90;;;;;;4980603;28;20422;-83
2023/05/07 05:44:17;;;;;;;72.00;19.03;;;14.90;99.90;;;;;;4980436;28;20430;-82
2023/05/07 05:46:43;;;;;;;71.80;17.03;;;15.00;99.90;;;;;;4963049;28;20436;-82
2023/05/07 05:49:08;;;;;;;70.97;18.90;;;15.00;99.90;;;;;;4962965;28;20454;-82
2023/05/07 05:51:34;;;;;;;71.97;17.93;;;15.00;99.90;;;;;;4981374;28;20175;-83
2023/05/07 05:54:00;;;;;;;70.53;20.00;;;15.00;99.90;;;;;;4963006;28;20303;-83
2023/05/07 05:56:26;;;;;;;69.63;16.57;;;15.10;99.90;;;;;;4980392;28;20191;-83
2023/05/07 05:58:51;;;;;;;69.97;18.07;;;15.20;99.90;;;;;;4962822;28;20175;-83
2023/05/07 06:01:18;;;;;;;72.13;20.17;;;15.20;99.90;;;;;;4980404;28;20428;-83
2023/05/07 06:03:44;;;;;;;69.67;17.93;;;15.30;99.90;;;;;;4978884;28;20230;-83
2023/05/07 06:06:16;;;;;;;70.37;18.60;;;15.30;99.90;;;;;;4980404;28;20441;-83
2023/05/07 06:08:42;;;;;;;71.00;18.70;;;15.30;99.90;;;;;;4980085;28;20835;-83
2023/05/07 06:11:10;;;;;;;72.17;23.10;;;15.30;99.90;;;;;;4980163;28;20414;-83
2023/05/07 06:13:36;;;;;;;71.97;20.97;;;15.40;99.90;;;;;;4979762;28;20454;-83
2023/05/07 06:16:02;;;;;;;71.83;19.10;;;15.40;99.90;;;;;;4978331;28;20429;-83
2023/05/07 06:18:27;;;;;;;72.20;20.27;;;15.40;99.90;;;;;;4979299;28;20169;-83
2023/05/07 06:20:53;;;;;;;71.20;20.87;;;15.50;99.90;;;;;;4961497;28;20767;-83
2023/05/07 06:23:19;;;;;;;73.07;20.10;;;15.60;99.90;;;;;;4979495;28;20206;-83
2023/05/07 06:25:51;;;;;;;71.07;21.17;;;15.70;99.90;;;;;;4979242;28;20188;-83
2023/05/07 06:28:17;;;;;;;70.20;17.77;;;15.70;99.90;;;;;;4977918;28;20174;-83
2023/05/07 06:30:45;;;;;;;72.27;21.30;;;15.80;99.90;;;;;;4979194;28;20419;-83
2023/05/07 06:33:11;;;;;;;73.27;18.80;;;15.90;99.90;;;;;;4979247;28;20454;-83
2023/05/07 06:35:36;;;;;;;70.90;17.90;;;16.00;99.90;;;;;;4963827;28;20855;-83
2023/05/07 06:38:02;;;;;;;71.10;13.77;;;15.90;99.90;;;;;;4981255;28;20169;-83
2023/05/07 06:40:28;;;;;;;68.20;11.77;;;15.80;99.90;;;;;;4998475;28;20165;-83
2023/05/07 06:42:53;;;;;;;68.13;9.80;;;15.80;99.90;;;;;;4998535;28;20517;-83
2023/05/07 06:45:22;;;;;;;68.17;10.87;;;15.90;99.90;;;;;;4998117;28;20183;-83
2023/05/07 06:47:48;;;;;;;68.30;11.80;;;16.00;99.90;;;;;;4980648;28;20263;-83
2023/05/07 06:50:15;;;;;;;68.10;10.63;;;16.10;99.90;;;;;;4997968;28;20441;-83
2023/05/07 06:52:44;;;;;;;67.97;9.10;;;16.00;99.90;;;;;;4998553;28;20193;-83
2023/05/07 06:55:11;;;;;;;66.17;7.57;;;16.00;99.90;;;;;;4998231;28;20416;-83
2023/05/07 06:57:37;;;;;;;67.10;8.50;;;16.20;99.90;;;;;;4981665;28;20427;-83
2023/05/07 07:00:06;;;;;;;67.00;8.77;;;16.20;99.90;;;;;;4998308;28;20787;-83
2023/05/07 07:02:32;;;;;;;68.00;7.60;;;16.20;99.90;;;;;;4998508;28;20482;-83
2023/05/07 07:04:58;;;;;;;65.97;4.87;;;16.20;99.90;;;;;;4997769;28;20444;-83
2023/05/07 07:07:23;;;;;;;65.30;4.40;;;16.30;99.90;;;;;;4998144;28;20188;-83
2023/05/07 07:09:50;;;;;;;65.30;4.30;;;16.30;99.90;;;;;;4997582;28;20180;-83
2023/05/07 07:12:18;;;;;;;67.03;4.40;;;16.40;99.90;;;;;;4979341;28;20202;-83
2023/05/07 07:14:44;;;;;;;65.93;4.97;;;16.50;99.90;;;;;;4997983;28;20401;-83
2023/05/07 07:17:10;;;;;;;66.70;4.50;;;16.50;99.90;;;;;;4997559;28;20426;-83
2023/05/07 07:19:36;;;;;;;67.03;4.97;;;16.60;99.90;;;;;;4980380;28;20232;-83
2023/05/07 07:22:01;;;;;;;64.97;4.03;;;16.70;99.90;;;;;;4980281;28;20192;-84
2023/05/07 07:24:27;;;;;;;66.63;4.10;;;16.70;99.90;;;;;;4997935;28;20205;-84
2023/05/07 07:26:53;;;;;;;67.03;4.50;;;16.80;99.90;;;;;;4997229;28;20667;-83
2023/05/07 07:29:19;;;;;;;67.20;4.77;;;16.90;99.90;;;;;;4996603;28;20167;-84
2023/05/07 07:31:47;;;;;;;65.70;5.20;;;16.90;99.90;;;;;;4979440;28;20429;-84
2023/05/07 07:34:12;;;;;;;66.27;4.80;;;16.90;99.90;;;;;;4979834;28;20170;-84
2023/05/07 07:36:38;;;;;;;68.77;5.00;;;16.90;99.90;;;;;;4979434;28;20461;-84
2023/05/07 07:39:04;;;;;;;72.13;5.33;;;17.10;99.90;;;;;;4979643;28;20174;-84
2023/05/07 07:41:29;;;;;;;67.70;5.17;;;17.20;99.90;;;;;;4997643;28;20186;-83
2023/05/07 07:43:55;;;;;;;68.60;4.73;;;17.20;99.90;;;;;;4997771;28;20194;-81
2023/05/07 07:46:21;;;;;;;64.40;4.37;;;17.20;99.90;;;;;;4997771;28;20187;-81
2023/05/07 07:51:14;;;;;;;67.23;5.73;;;17.30;99.90;;;;;;4975147;28;20214;-84
2023/05/07 07:53:41;;;;;;;65.93;5.33;;;17.40;99.90;;;;;;4976619;28;20454;-84
2023/05/07 07:56:06;;;;;;;67.20;4.73;;;17.40;99.90;;;;;;4959712;28;20194;-84
2023/05/07 07:58:36;;;;;;;66.13;5.77;;;17.40;99.90;;;;;;4977268;28;20399;-84
2023/05/07 08:01:02;;;;;;;65.97;6.10;;;17.60;99.90;;;;;;4977805;28;20164;-83
2023/05/07 08:03:28;;;;;;;66.10;6.03;;;17.60;99.90;;;;;;4977055;28;20407;-84
2023/05/07 08:05:53;;;;;;;69.87;6.77;;;17.70;99.90;;;;;;4977037;28;20562;-83
2023/05/07 08:08:19;;;;;;;68.90;8.53;;;17.80;99.90;;;;;;4977419;28;20402;-83
2023/05/07 08:10:45;;;;;;;67.30;6.40;;;17.80;99.90;;;;;;4977477;28;20171;-83
2023/05/07 08:13:11;;;;;;;70.40;7.80;;;17.80;99.90;;;;;;4977281;28;20187;-83
2023/05/07 08:15:36;;;;;;;69.10;7.70;;;17.90;99.90;;;;;;4978355;28;20278;-84
2023/05/07 08:18:02;;;;;;;66.90;7.93;;;17.90;99.90;;;;;;4977506;28;20168;-83
2023/05/07 08:20:31;;;;;;;66.67;6.23;;;18.00;99.90;;;;;;4977825;28;20163;-83
2023/05/07 08:22:57;;;;;;;66.37;7.13;;;18.00;99.90;;;;;;4976026;28;20399;-83
2023/05/07 08:25:22;;;;;;;67.00;7.20;;;18.00;99.90;;;;;;4977126;28;20481;-83
2023/05/07 08:27:48;;;;;;;66.97;7.20;;;18.20;99.90;;;;;;4959840;28;20233;-83
2023/05/07 08:30:14;;;;;;;65.87;6.07;;;18.20;99.90;;;;;;4976834;28;20638;-83
2023/05/07 08:32:40;;;;;;;68.13;5.77;;;18.20;99.90;;;;;;4959334;28;20335;-83
2023/05/07 08:35:06;;;;;;;67.30;5.50;;;18.20;99.90;;;;;;4976822;28;20423;-83
2023/05/07 08:37:31;;;;;;;66.40;5.87;;;18.30;99.90;;;;;;4976893;28;20183;-83
2023/05/07 08:39:57;;;;;;;65.20;4.37;;;18.40;99.90;;;;;;4959157;28;20434;-83
2023/05/07 08:42:24;;;;;;;65.90;4.47;;;18.40;99.90;;;;;;4976615;28;20186;-83
2023/05/07 08:44:55;;;;;;;67.90;4.23;;;18.50;99.90;;;;;;4959830;28;20194;-83
2023/05/07 08:47:23;;;;;;;66.40;4.50;;;18.60;99.90;;;;;;4959404;28;20442;-83
2023/05/07 08:49:49;;;;;;;65.93;4.40;;;18.60;99.90;;;;;;4976741;28;20505;-83
2023/05/07 08:52:15;;;;;;;65.37;4.77;;;18.80;99.90;;;;;;4977756;28;20999;-83
2023/05/07 08:54:41;;;;;;;68.00;5.20;;;18.90;99.90;;;;;;4977326;28;20415;-83
2023/05/07 08:57:06;;;;;;;65.97;5.00;;;19.00;99.90;;;;;;4976727;28;20180;-83
2023/05/07 08:59:32;;;;;;;67.67;5.63;;;19.00;99.90;;;;;;4959331;28;20406;-83
2023/05/07 09:01:58;;;;;;;66.20;5.20;;;19.00;99.90;;;;;;4959430;28;20175;-83
2023/05/07 09:04:23;;;;;;;66.57;5.37;;;19.00;99.90;;;;;;4977412;28;20186;-81
2023/05/07 09:06:51;;;;;;;66.07;4.50;;;19.10;99.90;;;;;;4960006;28;20198;-81
2023/05/07 09:09:18;;;;;;;66.00;4.87;;;19.20;99.90;;;;;;4977700;28;20198;-81
2023/05/07 09:11:44;;;;;;;67.37;5.30;;;19.30;99.90;;;;;;4978274;28;20439;-81
2023/05/07 09:14:10;;;;;;;69.83;5.10;;;19.30;99.90;;;;;;4977401;28;20406;-81
2023/05/07 09:16:35;;;;;;;66.07;4.80;;;19.40;99.90;;;;;;4976866;28;20242;-80
2023/05/07 09:19:01;;;;;;;65.90;4.77;;;19.40;99.90;;;;;;4977297;28;20170;-81
2023/05/07 09:25:16;;;;;;;65.07;4.40;;;19.30;99.90;;;;;;4963154;28;20782;-88
2023/05/07 09:27:58;;;;;;;65.07;3.60;;;19.40;99.90;;;;;;4954086;29;20424;-88
2023/05/07 09:30:39;;;;;;;67.20;5.67;;;19.70;99.90;;;;;;4937839;29;20395;-88
2023/05/07 09:33:08;;;;;;;65.03;4.50;;;19.70;99.90;;;;;;4954528;28;20455;-87
2023/05/07 09:35:53;;;;;;;66.07;5.50;;;19.70;99.90;;;;;;4952224;23;20799;-88
2023/05/07 09:38:26;;;;;;;66.70;4.63;;;19.80;99.90;;;;;;4997301;28;20547;-88
2023/05/07 09:41:12;;;;;;;67.37;6.00;;;19.90;99.90;;;;;;4979913;28;20500;-88
2023/05/07 09:43:41;;;;;;;66.17;5.20;;;19.90;99.90;;;;;;4979651;28;20845;-88
2023/05/07 09:49:37;;;;;;;66.23;8.47;;;20.00;99.90;;;;;;4977950;28;20409;-87
2023/05/07 09:52:13;;;;;;;68.17;8.30;;;20.00;99.90;;;;;;4979862;28;20805;-87
2023/05/07 09:57:27;;;;;;;65.87;5.40;;;19.90;99.90;;;;;;4983258;28;20532;-87
2023/05/07 09:59:55;;;;;;;66.97;7.23;;;19.90;99.90;;;;;;4979296;28;20852;-87
2023/05/07 10:02:23;;;;;;;67.17;9.10;;;20.00;98.80;;;;;;4996440;28;20484;-87
2023/05/07 10:04:55;;;;;;;67.77;11.00;;;20.10;92.20;;;;;;4996620;28;20449;-87
2023/05/07 10:07:27;;;;;;;69.30;13.93;;;20.30;82.10;;;;;;4996838;28;20436;-87
2023/05/07 10:09:55;;;;;;;74.60;20.53;;;20.60;63.20;;;;;;4979006;28;20418;-87
2023/05/07 10:12:21;;;;;;;68.83;13.93;;;20.80;45.50;;;;;;4979108;28;20468;-87
2023/05/07 10:14:48;;;;;;;68.80;12.23;;;20.80;52.40;;;;;;4978859;28;20414;-87
2023/05/07 10:17:29;;;;;;;70.30;18.40;;;20.90;66.90;;;;;;4996658;28;20419;-87
2023/05/07 10:19:57;;;;;;;68.60;13.33;;;21.20;61.70;;;;;;4979897;28;20411;-87
2023/05/07 10:22:27;;;;;;;67.67;7.97;;;21.50;42.00;;;;;;4996341;28;20471;-87
2023/05/07 10:24:56;;;;;;;66.37;5.73;;;21.70;28.60;;;;;;4980194;28;20974;-87
2023/05/07 10:27:23;;;;;;;65.73;5.70;;;21.80;14.90;;;;;;4979160;28;21002;-87
2023/05/07 10:30:21;;;;;;;67.17;5.20;;;21.80;25.00;;;;;;4979553;28;20416;-87
2023/05/07 10:32:52;;;;;;;66.60;4.70;;;22.10;23.90;;;;;;4996443;28;20391;-87
2023/05/07 10:35:24;;;;;;;66.87;4.73;;;22.40;15.50;;;;;;4978732;28;20500;-87
2023/05/07 10:37:50;;;;;;;66.17;5.30;;;22.60;15.80;;;;;;4980097;28;20820;-87
2023/05/07 10:40:17;;;;;;;67.73;7.70;;;22.80;5.80;;;;;;4979555;28;20501;-86
2023/05/07 10:43:00;;;;;;;67.70;7.47;;;22.50;1.00;;;;;;4996062;28;20437;-87
2023/05/07 10:45:27;;;;;;;67.97;7.90;;;22.50;1.00;;;;;;4977479;28;20418;-87
2023/05/07 10:48:14;;;;;;;67.13;9.13;;;22.20;1.00;;;;;;4995737;28;20434;-87
2023/05/07 10:50:45;;;;;;;67.50;8.20;;;22.20;1.00;;;;;;4977796;28;20776;-87
2023/05/07 10:53:17;;;;;;;68.70;7.90;;;22.00;1.00;;;;;;4978138;28;20445;-87
2023/05/07 10:55:50;;;;;;;70.00;8.40;;;22.20;1.00;;;;;;4996278;28;20432;-87
2023/05/07 10:58:22;;;;;;;68.90;8.17;;;22.30;1.00;;;;;;4979066;28;20465;-87
2023/05/07 11:00:49;;;;;;;67.30;10.17;;;22.50;1.00;;;;;;4979515;28;20892;-87
2023/05/07 11:03:22;;;;;;;67.37;8.57;;;22.90;1.00;;;;;;4978265;28;20453;-87
2023/05/07 11:06:13;;;;;;;66.47;3.60;;;23.40;1.00;;;;;;4978749;28;20438;-87
2023/05/07 11:08:58;;;;;;;65.20;3.17;;;23.50;1.00;;;;;;4978079;28;20824;-87
2023/05/07 11:11:55;;;;;;;65.73;3.47;;;23.60;1.00;;;;;;4995487;28;20409;-87
2023/05/07 11:14:39;;;;;;;65.60;3.50;;;23.50;1.00;;;;;;4978084;28;20804;-87
2023/05/07 11:17:09;;;;;;;67.37;5.70;;;23.90;1.00;;;;;;4995162;28;20430;-87
2023/05/07 11:19:51;;;;;;;67.93;6.10;;;24.10;1.00;;;;;;4978036;28;20414;-87
2023/05/07 11:22:32;;;;;;;68.00;7.50;;;24.40;1.00;;;;;;4995514;28;20442;-86
2023/05/07 11:25:06;;;;;;;66.33;4.43;;;24.40;1.00;;;;;;4978891;28;20997;-87
2023/05/07 11:27:32;;;;;;;68.60;5.93;;;24.60;1.00;;;;;;4978116;28;20433;-86
2023/05/07 11:30:01;;;;;;;69.73;9.40;;;24.80;1.00;;;;;;4995537;28;20406;-87
2023/05/07 11:32:28;;;;;;;68.87;7.53;;;24.50;1.00;;;;;;4977990;28;20493;-87
2023/05/07 11:34:55;;;;;;;68.50;9.20;;;24.60;1.00;;;;;;4978078;28;20442;-87
2023/05/07 11:37:22;;;;;;;68.60;8.70;;;24.40;1.00;;;;;;4977555;28;20442;-86
2023/05/07 11:39:48;;;;;;;68.87;9.20;;;23.90;1.00;;;;;;4977493;28;20414;-87
2023/05/07 11:42:31;;;;;;;72.00;10.00;;;23.80;1.00;;;;;;4995087;28;20836;-86
2023/05/07 11:45:02;;;;;;;71.20;8.43;;;23.60;1.00;;;;;;4994767;28;20434;-87
2023/05/07 11:47:31;;;;;;;67.60;7.97;;;23.50;1.00;;;;;;4977601;28;20833;-87
2023/05/07 11:50:07;;;;;;;67.97;7.67;;;23.30;1.00;;;;;;4977167;28;20413;-87
2023/05/07 11:52:34;;;;;;;70.07;7.40;;;23.20;1.00;;;;;;4994820;28;20394;-87
2023/05/07 11:55:00;;;;;;;66.93;5.10;;;23.00;1.00;;;;;;4977237;28;20518;-87
2023/05/07 11:57:29;;;;;;;68.67;8.10;;;23.00;1.00;;;;;;4962106;28;20979;-87
2023/05/07 11:59:57;;;;;;;70.50;9.10;;;23.00;1.00;;;;;;4994693;28;20441;-87
2023/05/07 12:02:25;;;;;;;71.40;9.63;;;23.10;1.00;;;;;;4976965;28;20457;-87
2023/05/07 12:04:52;;;;;;;68.17;7.43;;;23.20;1.00;;;;;;4977206;28;20497;-87
2023/05/07 12:07:18;;;;;;;67.27;6.63;;;22.80;1.00;;;;;;4977251;28;20465;-87
2023/05/07 12:09:45;;;;;;;69.53;8.77;;;22.80;1.00;;;;;;4977534;28;20434;-87
2023/05/07 12:12:11;;;;;;;67.57;7.90;;;22.80;1.00;;;;;;4994303;28;20426;-87
2023/05/07 12:14:41;;;;;;;68.37;6.93;;;22.90;1.00;;;;;;4994613;28;20822;-87
2023/05/07 12:17:08;;;;;;;67.10;7.33;;;22.60;1.00;;;;;;4994514;28;20430;-87
2023/05/07 12:19:39;;;;;;;66.70;5.87;;;22.60;1.00;;;;;;4994668;28;20410;-87
2023/05/07 12:22:07;;;;;;;69.00;8.60;;;22.60;1.00;;;;;;4977625;28;20476;-87
2023/05/07 12:24:50;;;;;;;68.63;9.27;;;22.60;1.00;;;;;;4978909;28;20417;-87
2023/05/07 12:27:18;;;;;;;68.70;7.73;;;22.60;1.00;;;;;;4995291;28;20449;-87
2023/05/07 12:29:47;;;;;;;68.80;8.00;;;22.60;1.00;;;;;;4994476;28;20844;-87
2023/05/07 12:32:17;;;;;;;67.57;7.80;;;22.50;1.00;;;;;;4994503;28;20429;-87
2023/05/07 12:34:47;;;;;;;69.40;9.40;;;22.40;1.00;;;;;;4976899;28;20401;-87
2023/05/07 12:37:13;;;;;;;67.90;7.83;;;22.40;1.00;;;;;;4993973;28;20536;-87
2023/05/07 12:39:51;;;;;;;67.67;6.57;;;22.30;1.00;;;;;;4994087;28;20521;-87
2023/05/07 12:42:26;;;;;;;66.90;8.13;;;22.00;1.00;;;;;;4993932;28;20457;-87
2023/05/07 12:44:52;;;;;;;68.30;7.60;;;22.00;1.00;;;;;;4977265;28;20448;-87
2023/05/07 12:47:24;;;;;;;66.97;7.67;;;22.00;1.00;;;;;;4993787;28;20422;-87
2023/05/07 12:49:51;;;;;;;67.80;6.17;;;21.90;1.00;;;;;;4994149;28;20391;-87
2023/05/07 12:52:27;;;;;;;66.30;3.30;;;21.90;1.00;;;;;;4993845;28;20413;-87
2023/05/07 12:56:11;;;;;;;65.97;3.83;;;21.90;1.00;;;;;;4994229;28;20405;-87
2023/05/07 12:58:33;;;;;;;67.60;3.60;;;21.70;1.00;;;;;;4933521;28;20501;-88
2023/05/07 13:02:01;;;;;;;;;;;;;;;;;;;;;
2023/05/07 13:04:52;;;;;;;66.40;5.00;;;21.50;14.60;;;;;;4941061;28;20421;-88
2023/05/07 13:08:14;;;;;;;;;;;;;;;;;;;;;
2023/05/07 13:15:28;;;;;;;;;;;;;;;;;;;;;
2023/05/07 13:18:47;;;;;;;;;;;;;;;;;;;;;
2023/05/07 13:25:18;;;;;;;68.60;10.37;;;21.40;99.90;;;;;;4826859;29;20429;-89
2023/05/07 13:28:20;;;;;;;68.97;12.00;;;21.50;99.90;;;;;;4884790;29;21017;-89
2023/05/07 13:30:51;;;;;;;68.17;10.00;;;21.40;99.90;;;;;;4936121;28;20405;-89
2023/05/07 13:33:19;;;;;;;69.20;8.30;;;21.60;97.10;;;;;;4980140;28;20452;-89
2023/05/07 13:36:07;;;;;;;69.00;7.30;;;21.60;90.80;;;;;;4979832;28;20460;-90
2023/05/07 13:38:35;;;;;;;71.10;10.30;;;21.70;83.00;;;;;;4997723;28;20777;-89
2023/05/07 13:41:23;;;;;;;73.67;13.90;;;21.70;88.80;;;;;;4997705;28;20443;-89
2023/05/07 13:44:18;;;;;;;70.57;18.57;;;21.70;91.80;;;;;;4979570;28;20518;-89
2023/05/07 13:46:45;;;;;;;73.27;19.60;;;21.70;96.90;;;;;;4984416;28;20437;-90
2023/05/07 13:49:17;;;;;;;71.13;18.63;;;21.70;98.30;;;;;;4997484;28;20402;-89
2023/05/07 13:51:43;;;;;;;71.20;18.20;;;21.70;99.90;;;;;;4980504;28;20417;-89
2023/05/07 13:54:09;;;;;;;70.10;18.07;;;21.70;99.90;;;;;;4981059;28;20414;-88
2023/05/07 13:56:43;;;;;;;73.00;19.93;;;21.70;99.90;;;;;;4997417;28;20210;-88
2023/05/07 13:59:40;;;;;;;71.37;18.20;;;21.70;99.90;;;;;;4979671;28;20689;-89
2023/05/07 14:02:09;;;;;;;71.23;16.57;;;21.60;99.90;;;;;;4979115;28;20453;-88
2023/05/07 14:04:38;;;;;;;73.90;12.73;;;21.60;99.90;;;;;;4978632;28;20475;-88
2023/05/07 14:07:15;;;;;;;69.03;11.33;;;21.70;99.90;;;;;;4979450;28;20524;-88
2023/05/07 14:09:45;;;;;;;71.57;14.80;;;21.70;99.90;;;;;;4996815;28;20397;-88
2023/05/07 14:12:20;;;;;;;70.43;13.37;;;21.70;99.90;;;;;;4997077;28;20410;-88
2023/05/07 14:15:27;;;;;;;72.23;15.07;;;21.70;99.90;;;;;;4996916;28;20461;-88
2023/05/07 14:17:57;;;;;;;72.70;19.20;;;21.60;99.90;;;;;;4936519;29;20513;-88
2023/05/07 14:20:30;;;;;;;72.37;19.47;;;21.50;99.90;;;;;;4920686;29;20429;-88
2023/05/07 14:23:09;;;;;;;70.13;15.10;;;21.50;99.90;;;;;;4958184;28;20484;-88
2023/05/07 14:25:56;;;;;;;69.53;13.20;;;21.50;99.90;;;;;;4979420;28;20520;-88
2023/05/07 14:28:25;;;;;;;70.67;12.70;;;21.30;99.90;;;;;;4997100;28;20831;-88
2023/05/07 14:30:58;;;;;;;70.57;14.83;;;21.20;99.90;;;;;;4996338;28;20402;-88
2023/05/07 14:33:42;;;;;;;71.30;16.93;;;21.20;99.90;;;;;;4979201;28;20432;-88
2023/05/07 14:36:13;;;;;;;72.63;17.97;;;21.00;99.90;;;;;;4978911;28;20426;-88
2023/05/07 14:38:41;;;;;;;70.50;13.00;;;21.00;99.90;;;;;;4978592;28;20950;-87
2023/05/07 14:41:10;;;;;;;70.47;11.97;;;21.00;99.90;;;;;;4978664;28;20470;-88
2023/05/07 14:43:38;;;;;;;69.20;11.10;;;21.00;99.90;;;;;;4996178;28;20518;-88
2023/05/07 14:46:40;;;;;;;;;;;;;;;;;;;;;
2023/05/07 14:49:57;;;;;;;69.00;6.90;;;20.80;99.90;;;;;;4998154;28;20481;-90
2023/05/07 14:52:38;;;;;;;68.73;6.47;;;20.80;99.90;;;;;;4995928;28;20443;-90
2023/05/07 14:55:23;;;;;;;69.37;7.53;;;21.00;99.90;;;;;;4979070;28;20430;-90
2023/05/07 15:01:49;;;;;;;69.37;7.40;;;21.10;99.90;;;;;;4982370;28;20475;-90
2023/05/07 15:04:46;;;;;;;;;;;;;;;;;;;;;
2023/05/07 15:18:14;;;;;;;68.03;9.30;;;20.70;99.90;;;;;;5289568;23;20582;-88
2023/05/07 15:21:39;;;;;;;67.37;10.77;;;20.40;83.50;;;;;;5017314;23;20555;-82
2023/05/07 15:24:29;;;;;;;66.37;8.03;;;20.30;96.90;;;;;;4917095;29;20463;-83
2023/05/07 15:31:08;;;;;;;67.20;7.73;;;20.50;99.90;;;;;;4873682;29;20440;-83
2023/05/07 15:37:57;;;;;;;67.90;6.33;;;20.70;99.90;;;;;;4861312;29;20458;-83
2023/05/07 15:44:17;;;;;;;66.90;6.80;;;20.80;99.90;;;;;;4778643;29;20518;-83
2023/05/07 15:47:17;;;;;;;71.87;8.33;;;20.70;99.90;;;;;;4890575;29;20440;-83
2023/05/07 15:50:22;;;;;;;69.60;8.43;;;20.70;97.80;;;;;;4937781;29;20941;-83
2023/05/07 15:53:04;;;;;;;72.80;11.83;;;20.80;96.80;;;;;;4898344;29;20417;-83
2023/05/07 15:56:17;;;;;;;71.13;17.40;;;20.80;94.10;;;;;;4898991;29;20410;-83
2023/05/07 15:59:00;;;;;;;;;;;;;;;;;;;;;
2023/05/07 16:05:45;;;;;;;68.70;14.87;;;21.00;72.90;;;;;;4806000;29;20426;-83
2023/05/07 16:08:56;;;;;;;68.67;13.70;;;21.10;71.20;;;;;;4809057;29;20428;-83
2023/05/07 16:12:21;;;;;;;69.37;14.13;;;21.10;66.10;;;;;;4787842;30;20429;-83
2023/05/07 16:16:02;;;;;;;69.70;15.60;;;21.20;63.50;;;;;;4815467;29;20908;-83
2023/05/07 16:22:17;;;;;;;;;;;;;;;;;;;;;
2023/05/07 16:28:34;;;;;;;67.60;11.50;;;21.00;63.70;;;;;;4930342;29;20440;-83
2023/05/07 16:32:08;;;;;;;;;;;;;;;;;;;;;
2023/05/07 16:38:11;;;;;;;65.20;4.00;;;20.70;46.20;;;;;;4841512;29;20420;-83
2023/05/07 16:40:44;;;;;;;65.93;5.03;;;20.70;43.20;;;;;;4823594;29;20519;-83
2023/05/07 16:43:22;;;;;;;67.30;6.30;;;20.60;45.00;;;;;;4824079;29;20471;-83
2023/05/07 16:46:18;;;;;;;65.20;5.13;;;20.60;52.60;;;;;;4826910;29;20813;-83
2023/05/07 16:49:08;;;;;;;67.47;5.60;;;20.70;51.40;;;;;;4808881;29;20431;-83
2023/05/07 16:52:35;;;;;;;66.10;4.90;;;20.60;50.40;;;;;;4827262;29;20415;-83
2023/05/07 16:56:00;;;;;;;66.40;7.07;;;20.30;47.40;;;;;;4796814;29;20527;-83
2023/05/07 16:59:31;;;;;;;65.90;7.00;;;20.10;60.90;;;;;;4896716;29;20948;-83
2023/05/07 17:02:42;;;;;;;;;;;;;;;;;;;;;
2023/05/07 17:05:35;;;;;;;68.00;11.57;;;20.00;75.40;;;;;;4918723;29;20425;-83
2023/05/07 17:08:30;;;;;;;68.27;13.17;;;20.00;80.50;;;;;;4941644;29;20435;-83
2023/05/07 17:11:35;;;;;;;;;;;;;;;;;;;;;
2023/05/07 17:14:26;;;;;;;70.27;17.53;;;20.10;90.40;;;;;;4941772;29;20968;-83
2023/05/07 17:17:32;;;;;;;68.50;16.33;;;20.20;86.20;;;;;;4941431;29;20431;-83
2023/05/07 17:20:11;;;;;;;71.17;20.93;;;20.30;95.20;;;;;;4884273;29;20424;-83
2023/05/07 17:22:47;;;;;;;68.67;15.93;;;20.40;94.80;;;;;;4941304;29;20526;-83
2023/05/07 17:25:22;;;;;;;71.97;19.10;;;20.40;95.60;;;;;;4941229;29;20776;-83
2023/05/07 17:27:51;;;;;;;69.73;18.77;;;20.40;96.40;;;;;;4925197;29;20867;-84
2023/05/07 17:30:17;;;;;;;66.93;11.30;;;20.40;95.70;;;;;;4940768;29;20429;-84
2023/05/07 17:36:01;;;;;;;71.37;20.90;;;20.40;99.90;;;;;;4920062;29;20485;-84
2023/05/07 17:38:28;;;;;;;69.77;16.20;;;20.40;98.20;;;;;;4941756;29;20876;-84
2023/05/07 17:40:58;;;;;;;71.50;14.20;;;20.30;99.90;;;;;;4923993;29;20408;-84
2023/05/07 17:43:37;;;;;;;68.70;8.90;;;20.20;99.90;;;;;;4924307;29;20614;-84
2023/05/07 17:46:15;;;;;;;66.83;7.07;;;20.10;99.90;;;;;;4923977;29;20434;-84